KCAR/CAR METAR and TAF weather

Enter ICAO airport designator
Station Type Date Time Source
KCAR METAR 2019/04/23 00:54 UTC NOAA

KCAR 230054Z AUTO 36008KT 10SM CLR 09/M02 A3020 RMK AO2 SLP233 T00891022


Station Type Date Time Source
KCAR Decoded METAR 2019/04/23 00:54 UTC NOAA

CARIBOU MUNICIPAL AIRPORT, ME, United States (KCAR) 46-52N 68-01W 191M
Apr 22, 2019 - 08:54 PM EDT / 2019.04.23 0054 UTC
Wind: from the N (360 degrees) at 9 MPH (8 KT):0
Visibility: 10 mile(s):0
Sky conditions: clear
Temperature: 48.0 F (8.9 C)
Dew Point: 28.0 F (-2.2 C)
Relative Humidity: 45%
Pressure (altimeter): 30.2 in. Hg (1022 hPa)
ob: KCAR 230054Z AUTO 36008KT 10SM CLR 09/M02 A3020 RMK AO2 SLP233 T00891022
cycle: 1

Station Type Date Time Source
KCAR TAF 2019/04/22 18:22 UTC NOAA

TAF KCAR 221720Z 2218/2318 01007KT P6SM SCT250
FM230800 04006KT P6SM VCSH SCT250
FM231200 05006KT 6SM -RA OVC090
FM231500 05008KT 6SM -RA OVC090
FM231600 06008KT P6SM VCSH OVC080

Example: see airport list